KBDR/BDR METAR and TAF weather

Enter ICAO airport designator
Station Type Date Time Source
KBDR METAR 2019/08/24 09:52 UTC NOAA

KBDR 240952Z AUTO 36006KT 10SM CLR 17/10 A3012 RMK AO2 SLP198 T01670100


Station Type Date Time Source
KBDR Decoded METAR 2019/08/24 09:52 UTC NOAA

Station name not available
Aug 24, 2019 - 05:52 AM EDT / 2019.08.24 0952 UTC
Wind: from the N (360 degrees) at 7 MPH (6 KT):0
Visibility: 10 mile(s):0
Sky conditions: clear
Temperature: 62.1 F (16.7 C)
Dew Point: 50.0 F (10.0 C)
Relative Humidity: 64%
Pressure (altimeter): 30.12 in. Hg (1019 hPa)
ob: KBDR 240952Z AUTO 36006KT 10SM CLR 17/10 A3012 RMK AO2 SLP198 T01670100
cycle: 10

Station Type Date Time Source
KBDR TAF 2019/08/24 09:33 UTC NOAA

TAF
AMD KBDR 240830Z 2409/2506 02010KT P6SM FEW050
FM241800 06009KT P6SM SCT060
FM242200 08008KT P6SM SCT060
FM250400 05007KT P6SM BKN040

Example: see airport list